Solon, Iowa
Current Conditions -  °F | °C
As of 5:52 AM on Monday 20 Oct 2014 (Local Time) from KCID Reporting Station
Clear Clear  
Wind Chill:   Ceiling: Unl
Heat Index:   Visibility: 10mi
Dew Point:   Wind: 8mph
Humidity: 93%   Direction: 310°NW
Pressure: 29.91"   Gusts: NA
Location:  41.81°N, 91.49°W
Report Text: KCID 201052Z 31007KT 10SM CLR 07/06 A2991 RMK AO2 SLP130 T00720061
Loading
Personal Weather Stations






























Interactive Weather Map New forecast layout! Learn more

10-Day Weather Forecast

Advertisements
Track Severe Weather on mobile